sensor_id;sensor_type;location;lat;lon;timestamp;pressure;altitude;pressure_sealevel;temperature;humidity
37792;BME280;29527;55.766;37.570;2023-03-13T00:00:10;98412.25;;;-3.07;66.72
37792;BME280;29527;55.766;37.570;2023-03-13T00:02:36;98410.50;;;-3.07;66.95
37792;BME280;29527;55.766;37.570;2023-03-13T00:05:01;98415.63;;;-3.05;67.09
37792;BME280;29527;55.766;37.570;2023-03-13T00:07:28;98422.66;;;-3.06;66.69
37792;BME280;29527;55.766;37.570;2023-03-13T00:09:53;98393.91;;;-3.25;66.29
37792;BME280;29527;55.766;37.570;2023-03-13T00:12:19;98424.28;;;-3.03;66.47
37792;BME280;29527;55.766;37.570;2023-03-13T00:14:44;98416.91;;;-3.14;66.33
37792;BME280;29527;55.766;37.570;2023-03-13T00:17:09;98433.66;;;-3.17;66.51
37792;BME280;29527;55.766;37.570;2023-03-13T00:19:35;98402.59;;;-3.43;66.05
37792;BME280;29527;55.766;37.570;2023-03-13T00:22:00;98447.13;;;-3.26;66.58
37792;BME280;29527;55.766;37.570;2023-03-13T00:24:26;98436.13;;;-3.33;66.99
37792;BME280;29527;55.766;37.570;2023-03-13T00:26:51;98451.53;;;-3.26;67.13
37792;BME280;29527;55.766;37.570;2023-03-13T00:29:17;98443.06;;;-3.32;66.87
37792;BME280;29527;55.766;37.570;2023-03-13T00:31:42;98440.69;;;-3.38;66.80
37792;BME280;29527;55.766;37.570;2023-03-13T00:34:08;98452.47;;;-3.47;67.11
37792;BME280;29527;55.766;37.570;2023-03-13T00:36:34;98456.06;;;-3.49;66.96
37792;BME280;29527;55.766;37.570;2023-03-13T00:39:00;98465.16;;;-3.58;67.18
37792;BME280;29527;55.766;37.570;2023-03-13T00:41:29;98462.63;;;-3.59;67.39
37792;BME280;29527;55.766;37.570;2023-03-13T00:43:55;98478.34;;;-3.59;66.98
37792;BME280;29527;55.766;37.570;2023-03-13T00:46:23;98479.25;;;-3.61;67.28
37792;BME280;29527;55.766;37.570;2023-03-13T00:48:48;98478.88;;;-3.53;67.52
37792;BME280;29527;55.766;37.570;2023-03-13T00:51:16;98483.50;;;-3.39;66.38
37792;BME280;29527;55.766;37.570;2023-03-13T00:53:42;98431.91;;;-3.75;66.82
37792;BME280;29527;55.766;37.570;2023-03-13T00:56:09;98489.44;;;-3.35;66.82
37792;BME280;29527;55.766;37.570;2023-03-13T00:58:38;98492.66;;;-3.28;67.15
37792;BME280;29527;55.766;37.570;2023-03-13T01:01:09;98494.34;;;-3.27;66.33
37792;BME280;29527;55.766;37.570;2023-03-13T01:03:35;98504.53;;;-3.21;66.04
37792;BME280;29527;55.766;37.570;2023-03-13T01:06:03;98502.34;;;-3.30;66.44
37792;BME280;29527;55.766;37.570;2023-03-13T01:08:29;98504.03;;;-3.29;65.99
37792;BME280;29527;55.766;37.570;2023-03-13T01:11:23;98514.22;;;-3.23;66.33
37792;BME280;29527;55.766;37.570;2023-03-13T01:13:49;98519.88;;;-3.33;66.48
37792;BME280;29527;55.766;37.570;2023-03-13T01:16:19;98525.13;;;-3.33;66.26
37792;BME280;29527;55.766;37.570;2023-03-13T01:18:47;98530.75;;;-3.42;66.76
37792;BME280;29527;55.766;37.570;2023-03-13T01:21:14;98530.66;;;-3.59;66.16
37792;BME280;29527;55.766;37.570;2023-03-13T01:23:40;98537.78;;;-3.63;66.68
37792;BME280;29527;55.766;37.570;2023-03-13T01:26:07;98520.72;;;-3.93;66.88
37792;BME280;29527;55.766;37.570;2023-03-13T01:28:34;98556.03;;;-3.82;67.39
37792;BME280;29527;55.766;37.570;2023-03-13T01:31:00;98559.66;;;-3.86;67.14
37792;BME280;29527;55.766;37.570;2023-03-13T01:33:34;98562.69;;;-3.96;66.75
37792;BME280;29527;55.766;37.570;2023-03-13T01:36:00;98578.88;;;-4.08;67.32
37792;BME280;29527;55.766;37.570;2023-03-13T01:38:26;98581.06;;;-4.20;67.95
37792;BME280;29527;55.766;37.570;2023-03-13T01:40:52;98514.25;;;-4.48;67.57
37792;BME280;29527;55.766;37.570;2023-03-13T01:43:26;98592.38;;;-4.19;67.90
37792;BME280;29527;55.766;37.570;2023-03-13T01:46:15;98591.91;;;-4.29;67.89
37792;BME280;29527;55.766;37.570;2023-03-13T01:48:52;98601.78;;;-4.37;68.34
37792;BME280;29527;55.766;37.570;2023-03-13T01:51:26;98611.31;;;-4.36;68.12
37792;BME280;29527;55.766;37.570;2023-03-13T01:53:59;98608.84;;;-4.39;68.82
37792;BME280;29527;55.766;37.570;2023-03-13T01:56:35;98624.50;;;-4.39;68.82
37792;BME280;29527;55.766;37.570;2023-03-13T01:59:03;98610.91;;;-4.48;69.03
37792;BME280;29527;55.766;37.570;2023-03-13T02:01:30;98618.78;;;-4.49;68.24
37792;BME280;29527;55.766;37.570;2023-03-13T02:03:56;98626.75;;;-4.52;68.34
37792;BME280;29527;55.766;37.570;2023-03-13T02:06:24;98626.03;;;-4.56;68.40
37792;BME280;29527;55.766;37.570;2023-03-13T02:08:55;98632.25;;;-4.60;68.45
37792;BME280;29527;55.766;37.570;2023-03-13T02:11:31;98647.03;;;-4.59;69.25
37792;BME280;29527;55.766;37.570;2023-03-13T02:14:00;98647.13;;;-4.62;69.34
37792;BME280;29527;55.766;37.570;2023-03-13T02:16:27;98659.66;;;-4.70;69.07
37792;BME280;29527;55.766;37.570;2023-03-13T02:18:53;98652.72;;;-4.71;69.18
37792;BME280;29527;55.766;37.570;2023-03-13T02:21:40;98642.63;;;-4.81;68.94
37792;BME280;29527;55.766;37.570;2023-03-13T02:24:27;98673.63;;;-4.71;68.92
37792;BME280;29527;55.766;37.570;2023-03-13T02:26:56;98675.59;;;-4.78;69.60
37792;BME280;29527;55.766;37.570;2023-03-13T02:29:22;98674.03;;;-4.84;69.09
37792;BME280;29527;55.766;37.570;2023-03-13T02:31:49;98683.69;;;-4.86;69.58
37792;BME280;29527;55.766;37.570;2023-03-13T02:34:20;98683.88;;;-4.91;69.71
37792;BME280;29527;55.766;37.570;2023-03-13T02:36:46;98677.00;;;-4.93;69.90
37792;BME280;29527;55.766;37.570;2023-03-13T02:39:15;98688.31;;;-4.93;69.67
37792;BME280;29527;55.766;37.570;2023-03-13T02:41:43;98693.78;;;-5.00;69.72
37792;BME280;29527;55.766;37.570;2023-03-13T02:44:10;98699.84;;;-5.00;69.46
37792;BME280;29527;55.766;37.570;2023-03-13T02:46:47;98699.75;;;-4.97;70.15
37792;BME280;29527;55.766;37.570;2023-03-13T02:49:27;98718.09;;;-4.98;69.82
37792;BME280;29527;55.766;37.570;2023-03-13T02:51:56;98712.31;;;-5.08;69.70
37792;BME280;29527;55.766;37.570;2023-03-13T02:54:34;98693.75;;;-5.24;69.45
37792;BME280;29527;55.766;37.570;2023-03-13T02:57:03;98724.50;;;-5.09;70.08
37792;BME280;29527;55.766;37.570;2023-03-13T02:59:28;98733.44;;;-5.14;70.00
37792;BME280;29527;55.766;37.570;2023-03-13T03:01:54;98723.25;;;-5.22;69.73
37792;BME280;29527;55.766;37.570;2023-03-13T03:04:24;98734.25;;;-5.14;69.92
37792;BME280;29527;55.766;37.570;2023-03-13T03:06:50;98733.56;;;-5.19;69.45
37792;BME280;29527;55.766;37.570;2023-03-13T03:09:18;98738.00;;;-5.21;70.00
37792;BME280;29527;55.766;37.570;2023-03-13T03:11:43;98741.41;;;-5.19;70.24
37792;BME280;29527;55.766;37.570;2023-03-13T03:14:10;98720.19;;;-5.35;69.91
37792;BME280;29527;55.766;37.570;2023-03-13T03:16:37;98754.50;;;-5.21;70.16
37792;BME280;29527;55.766;37.570;2023-03-13T03:19:03;98762.31;;;-5.21;69.93
37792;BME280;29527;55.766;37.570;2023-03-13T03:21:29;98757.16;;;-5.22;70.10
37792;BME280;29527;55.766;37.570;2023-03-13T03:23:54;98763.88;;;-5.15;70.07
37792;BME280;29527;55.766;37.570;2023-03-13T03:26:20;98772.63;;;-5.16;69.81
37792;BME280;29527;55.766;37.570;2023-03-13T03:28:46;98770.06;;;-5.17;70.18
37792;BME280;29527;55.766;37.570;2023-03-13T03:31:13;98779.75;;;-5.21;69.68
37792;BME280;29527;55.766;37.570;2023-03-13T03:33:39;98784.19;;;-5.25;69.58
37792;BME280;29527;55.766;37.570;2023-03-13T03:36:16;98790.22;;;-5.23;69.70
37792;BME280;29527;55.766;37.570;2023-03-13T03:38:42;98792.91;;;-5.24;69.82
37792;BME280;29527;55.766;37.570;2023-03-13T03:41:09;98786.78;;;-5.23;69.83
37792;BME280;29527;55.766;37.570;2023-03-13T03:43:36;98789.28;;;-5.20;69.98
37792;BME280;29527;55.766;37.570;2023-03-13T03:46:01;98802.22;;;-5.17;70.03
37792;BME280;29527;55.766;37.570;2023-03-13T03:48:27;98798.81;;;-5.19;69.81
37792;BME280;29527;55.766;37.570;2023-03-13T03:50:53;98794.53;;;-5.22;69.49
37792;BME280;29527;55.766;37.570;2023-03-13T03:53:18;98805.53;;;-5.12;69.55
37792;BME280;29527;55.766;37.570;2023-03-13T03:55:44;98804.63;;;-5.11;69.02
37792;BME280;29527;55.766;37.570;2023-03-13T03:58:09;98819.38;;;-5.10;68.84
37792;BME280;29527;55.766;37.570;2023-03-13T04:00:35;98820.19;;;-5.08;68.65
37792;BME280;29527;55.766;37.570;2023-03-13T04:03:00;98822.72;;;-5.05;68.87
37792;BME280;29527;55.766;37.570;2023-03-13T04:05:26;98816.72;;;-5.08;68.56
37792;BME280;29527;55.766;37.570;2023-03-13T04:07:51;98797.03;;;-5.19;68.55
37792;BME280;29527;55.766;37.570;2023-03-13T04:10:17;98838.16;;;-4.98;68.37
37792;BME280;29527;55.766;37.570;2023-03-13T04:12:42;98828.53;;;-4.96;68.23
37792;BME280;29527;55.766;37.570;2023-03-13T04:15:08;98826.03;;;-4.99;67.98
37792;BME280;29527;55.766;37.570;2023-03-13T04:17:34;98839.44;;;-4.85;68.02
37792;BME280;29527;55.766;37.570;2023-03-13T04:20:00;98840.19;;;-4.80;68.29
37792;BME280;29527;55.766;37.570;2023-03-13T04:22:26;98853.81;;;-4.71;67.93
37792;BME280;29527;55.766;37.570;2023-03-13T04:24:52;98850.25;;;-4.69;67.14
37792;BME280;29527;55.766;37.570;2023-03-13T04:27:18;98828.22;;;-4.87;67.01
37792;BME280;29527;55.766;37.570;2023-03-13T04:29:44;98862.97;;;-4.58;67.46
37792;BME280;29527;55.766;37.570;2023-03-13T04:32:10;98858.25;;;-4.48;67.51
37792;BME280;29527;55.766;37.570;2023-03-13T04:34:36;98869.75;;;-3.33;66.65
37792;BME280;29527;55.766;37.570;2023-03-13T04:37:01;98871.06;;;-0.82;60.81
37792;BME280;29527;55.766;37.570;2023-03-13T04:39:27;98856.53;;;1.27;55.36
37792;BME280;29527;55.766;37.570;2023-03-13T04:41:53;98875.75;;;3.18;50.98
37792;BME280;29527;55.766;37.570;2023-03-13T04:44:20;98876.06;;;4.57;47.79
37792;BME280;29527;55.766;37.570;2023-03-13T04:46:46;98881.53;;;5.05;45.64
37792;BME280;29527;55.766;37.570;2023-03-13T04:49:11;98871.47;;;4.22;46.09
37792;BME280;29527;55.766;37.570;2023-03-13T04:51:39;98890.69;;;3.05;48.37
37792;BME280;29527;55.766;37.570;2023-03-13T04:54:05;98904.94;;;2.17;49.59
37792;BME280;29527;55.766;37.570;2023-03-13T04:56:30;98895.22;;;3.17;49.52
37792;BME280;29527;55.766;37.570;2023-03-13T04:58:56;98899.19;;;5.30;44.61
37792;BME280;29527;55.766;37.570;2023-03-13T05:01:21;98900.38;;;7.23;41.71
37792;BME280;29527;55.766;37.570;2023-03-13T05:03:47;98905.91;;;8.80;38.64
37792;BME280;29527;55.766;37.570;2023-03-13T05:06:12;98908.59;;;9.80;36.91
37792;BME280;29527;55.766;37.570;2023-03-13T05:08:38;98913.78;;;10.68;35.77
37792;BME280;29527;55.766;37.570;2023-03-13T05:11:04;98917.56;;;11.68;34.19
37792;BME280;29527;55.766;37.570;2023-03-13T05:13:30;98918.94;;;12.61;32.65
37792;BME280;29527;55.766;37.570;2023-03-13T05:15:55;98919.78;;;13.47;31.76
37792;BME280;29527;55.766;37.570;2023-03-13T05:18:21;98926.38;;;14.28;30.29
37792;BME280;29527;55.766;37.570;2023-03-13T05:20:46;98930.09;;;15.00;29.50
37792;BME280;29527;55.766;37.570;2023-03-13T05:23:12;98940.84;;;15.40;30.06
37792;BME280;29527;55.766;37.570;2023-03-13T05:25:38;98908.91;;;15.28;29.70
37792;BME280;29527;55.766;37.570;2023-03-13T05:28:03;98938.09;;;15.79;29.99
37792;BME280;29527;55.766;37.570;2023-03-13T05:30:29;98944.16;;;16.05;27.97
37792;BME280;29527;55.766;37.570;2023-03-13T05:32:54;98952.38;;;16.50;26.57
37792;BME280;29527;55.766;37.570;2023-03-13T05:35:20;98949.16;;;17.30;24.67
37792;BME280;29527;55.766;37.570;2023-03-13T05:37:46;98951.44;;;18.06;23.08
37792;BME280;29527;55.766;37.570;2023-03-13T05:40:11;98949.09;;;18.54;22.29
37792;BME280;29527;55.766;37.570;2023-03-13T05:42:38;98948.78;;;18.35;21.22
37792;BME280;29527;55.766;37.570;2023-03-13T05:45:04;98950.31;;;17.79;21.60
37792;BME280;29527;55.766;37.570;2023-03-13T05:47:30;98941.50;;;17.55;22.73
37792;BME280;29527;55.766;37.570;2023-03-13T05:49:56;98958.72;;;18.56;21.21
37792;BME280;29527;55.766;37.570;2023-03-13T05:52:21;98961.19;;;19.70;19.76
37792;BME280;29527;55.766;37.570;2023-03-13T05:54:47;98950.59;;;20.76;18.10
37792;BME280;29527;55.766;37.570;2023-03-13T05:57:12;98953.22;;;21.76;17.01
37792;BME280;29527;55.766;37.570;2023-03-13T05:59:38;98952.34;;;22.40;16.08
37792;BME280;29527;55.766;37.570;2023-03-13T06:02:03;98957.81;;;22.84;15.70
37792;BME280;29527;55.766;37.570;2023-03-13T06:04:29;98952.31;;;23.77;14.38
37792;BME280;29527;55.766;37.570;2023-03-13T06:06:54;98961.75;;;24.35;14.41
37792;BME280;29527;55.766;37.570;2023-03-13T06:09:20;98948.31;;;24.58;13.97
37792;BME280;29527;55.766;37.570;2023-03-13T06:11:45;98965.22;;;24.55;13.62
37792;BME280;29527;55.766;37.570;2023-03-13T06:14:11;98966.44;;;24.83;13.00
37792;BME280;29527;55.766;37.570;2023-03-13T06:16:36;98976.19;;;25.55;12.56
37792;BME280;29527;55.766;37.570;2023-03-13T06:19:02;98975.88;;;26.27;12.69
37792;BME280;29527;55.766;37.570;2023-03-13T06:21:27;98979.28;;;27.02;11.95
37792;BME280;29527;55.766;37.570;2023-03-13T06:23:54;98983.28;;;27.56;11.66
37792;BME280;29527;55.766;37.570;2023-03-13T06:26:20;98963.00;;;28.17;10.25
37792;BME280;29527;55.766;37.570;2023-03-13T06:28:46;98978.41;;;28.84;10.36
37792;BME280;29527;55.766;37.570;2023-03-13T06:31:12;98980.44;;;29.47;10.40
37792;BME280;29527;55.766;37.570;2023-03-13T06:33:38;98981.69;;;30.03;9.60
37792;BME280;29527;55.766;37.570;2023-03-13T06:36:04;98982.47;;;29.83;9.73
37792;BME280;29527;55.766;37.570;2023-03-13T06:38:29;98987.38;;;29.75;9.55
37792;BME280;29527;55.766;37.570;2023-03-13T06:40:55;98994.13;;;29.36;9.96
37792;BME280;29527;55.766;37.570;2023-03-13T06:43:21;99000.13;;;29.18;9.36
37792;BME280;29527;55.766;37.570;2023-03-13T06:45:46;99004.97;;;28.62;9.66
37792;BME280;29527;55.766;37.570;2023-03-13T06:48:12;99001.03;;;27.71;10.17
37792;BME280;29527;55.766;37.570;2023-03-13T06:50:38;99002.41;;;27.06;10.06
37792;BME280;29527;55.766;37.570;2023-03-13T06:53:04;99002.34;;;27.01;10.42
37792;BME280;29527;55.766;37.570;2023-03-13T06:55:30;99017.47;;;27.88;9.96
37792;BME280;29527;55.766;37.570;2023-03-13T06:57:55;98986.00;;;28.33;9.21
37792;BME280;29527;55.766;37.570;2023-03-13T07:00:21;98965.97;;;28.43;8.89
37792;BME280;29527;55.766;37.570;2023-03-13T07:02:47;99011.91;;;28.70;8.98
37792;BME280;29527;55.766;37.570;2023-03-13T07:05:12;99019.34;;;29.07;8.74
37792;BME280;29527;55.766;37.570;2023-03-13T07:07:39;99025.97;;;29.55;8.67
37792;BME280;29527;55.766;37.570;2023-03-13T07:10:06;99024.41;;;29.26;8.83
37792;BME280;29527;55.766;37.570;2023-03-13T07:12:33;99029.97;;;27.51;9.78
37792;BME280;29527;55.766;37.570;2023-03-13T07:14:59;99029.38;;;25.18;10.85
37792;BME280;29527;55.766;37.570;2023-03-13T07:17:25;99031.81;;;22.43;12.39
37792;BME280;29527;55.766;37.570;2023-03-13T07:19:50;99047.47;;;19.75;14.32
37792;BME280;29527;55.766;37.570;2023-03-13T07:22:16;99042.75;;;17.76;15.99
37792;BME280;29527;55.766;37.570;2023-03-13T07:24:41;99054.69;;;16.91;17.17
37792;BME280;29527;55.766;37.570;2023-03-13T07:27:06;99050.69;;;16.26;17.79
37792;BME280;29527;55.766;37.570;2023-03-13T07:29:32;99061.28;;;16.27;17.76
37792;BME280;29527;55.766;37.570;2023-03-13T07:31:57;99063.28;;;16.95;17.12
37792;BME280;29527;55.766;37.570;2023-03-13T07:34:23;99070.06;;;16.53;17.45
37792;BME280;29527;55.766;37.570;2023-03-13T07:36:48;99082.28;;;15.45;18.81
37792;BME280;29527;55.766;37.570;2023-03-13T07:39:14;99084.38;;;14.11;19.92
37792;BME280;29527;55.766;37.570;2023-03-13T07:41:39;99090.22;;;12.75;21.32
37792;BME280;29527;55.766;37.570;2023-03-13T07:44:06;99101.56;;;11.69;22.58
37792;BME280;29527;55.766;37.570;2023-03-13T07:46:31;99103.84;;;10.88;23.70
37792;BME280;29527;55.766;37.570;2023-03-13T07:48:57;99079.31;;;10.14;25.06
37792;BME280;29527;55.766;37.570;2023-03-13T07:51:23;99111.13;;;9.56;25.63
37792;BME280;29527;55.766;37.570;2023-03-13T07:53:50;99108.97;;;8.67;26.49
37792;BME280;29527;55.766;37.570;2023-03-13T07:56:20;99117.03;;;8.11;27.73
37792;BME280;29527;55.766;37.570;2023-03-13T07:58:46;99117.59;;;7.59;28.54
37792;BME280;29527;55.766;37.570;2023-03-13T08:01:18;99121.97;;;7.49;28.53
37792;BME280;29527;55.766;37.570;2023-03-13T08:03:44;99121.47;;;7.67;28.64
37792;BME280;29527;55.766;37.570;2023-03-13T08:06:13;99100.22;;;7.99;28.29
37792;BME280;29527;55.766;37.570;2023-03-13T08:08:39;99121.06;;;7.94;27.70
37792;BME280;29527;55.766;37.570;2023-03-13T08:11:08;99125.25;;;7.41;28.47
37792;BME280;29527;55.766;37.570;2023-03-13T08:13:34;99133.81;;;6.99;29.71
37792;BME280;29527;55.766;37.570;2023-03-13T08:18:34;99128.22;;;6.91;30.25
37792;BME280;29527;55.766;37.570;2023-03-13T08:21:08;99136.22;;;7.14;29.73
37792;BME280;29527;55.766;37.570;2023-03-13T08:23:34;99131.97;;;6.88;30.33
37792;BME280;29527;55.766;37.570;2023-03-13T08:26:10;99135.44;;;6.78;30.85
37792;BME280;29527;55.766;37.570;2023-03-13T08:28:37;99126.66;;;6.53;30.76
37792;BME280;29527;55.766;37.570;2023-03-13T08:31:26;99138.25;;;6.52;31.45
37792;BME280;29527;55.766;37.570;2023-03-13T08:33:52;99131.31;;;6.13;31.88
37792;BME280;29527;55.766;37.570;2023-03-13T08:36:26;99139.88;;;5.80;32.72
37792;BME280;29527;55.766;37.570;2023-03-13T08:38:53;99141.72;;;5.53;33.97
37792;BME280;29527;55.766;37.570;2023-03-13T08:41:21;99143.31;;;5.69;33.57
37792;BME280;29527;55.766;37.570;2023-03-13T08:43:47;99150.06;;;5.86;33.71
37792;BME280;29527;55.766;37.570;2023-03-13T08:46:14;99146.63;;;5.97;33.41
37792;BME280;29527;55.766;37.570;2023-03-13T08:48:40;99161.88;;;5.82;33.61
37792;BME280;29527;55.766;37.570;2023-03-13T08:51:08;99158.56;;;5.78;34.56
37792;BME280;29527;55.766;37.570;2023-03-13T08:53:35;99153.88;;;5.95;33.97
37792;BME280;29527;55.766;37.570;2023-03-13T08:56:02;99173.94;;;6.12;34.05
37792;BME280;29527;55.766;37.570;2023-03-13T08:58:29;99160.59;;;6.25;33.50
37792;BME280;29527;55.766;37.570;2023-03-13T09:01:04;99164.09;;;6.50;33.56
37792;BME280;29527;55.766;37.570;2023-03-13T09:03:30;99167.91;;;6.34;33.20
37792;BME280;29527;55.766;37.570;2023-03-13T09:05:57;99180.22;;;6.11;34.22
37792;BME280;29527;55.766;37.570;2023-03-13T09:08:23;99182.63;;;5.77;34.87
37792;BME280;29527;55.766;37.570;2023-03-13T09:11:03;99197.09;;;5.59;35.16
37792;BME280;29527;55.766;37.570;2023-03-13T09:13:31;99189.53;;;5.27;35.77
37792;BME280;29527;55.766;37.570;2023-03-13T09:15:58;99195.78;;;5.13;36.48
37792;BME280;29527;55.766;37.570;2023-03-13T09:18:24;99185.38;;;4.97;37.24
37792;BME280;29527;55.766;37.570;2023-03-13T09:20:50;99180.06;;;4.84;36.52
37792;BME280;29527;55.766;37.570;2023-03-13T09:23:16;99197.94;;;4.68;38.08
37792;BME280;29527;55.766;37.570;2023-03-13T09:25:41;99191.47;;;4.59;37.49
37792;BME280;29527;55.766;37.570;2023-03-13T09:28:07;99202.84;;;4.47;38.17
37792;BME280;29527;55.766;37.570;2023-03-13T09:30:32;99190.91;;;4.26;37.69
37792;BME280;29527;55.766;37.570;2023-03-13T09:32:58;99199.16;;;4.07;39.33
37792;BME280;29527;55.766;37.570;2023-03-13T09:35:23;99211.47;;;4.08;40.17
37792;BME280;29527;55.766;37.570;2023-03-13T09:37:49;99218.41;;;4.38;39.31
37792;BME280;29527;55.766;37.570;2023-03-13T09:40:16;99206.78;;;4.54;39.39
37792;BME280;29527;55.766;37.570;2023-03-13T09:42:59;99213.59;;;4.58;39.71
37792;BME280;29527;55.766;37.570;2023-03-13T09:45:30;99225.59;;;4.64;39.68
37792;BME280;29527;55.766;37.570;2023-03-13T09:53:39;99236.66;;;4.70;40.58
37792;BME280;29527;55.766;37.570;2023-03-13T09:56:18;99203.56;;;4.63;40.77
37792;BME280;29527;55.766;37.570;2023-03-13T09:59:00;99230.91;;;5.04;39.87
37792;BME280;29527;55.766;37.570;2023-03-13T10:01:28;99232.72;;;5.03;39.69
37792;BME280;29527;55.766;37.570;2023-03-13T10:04:07;99245.63;;;4.82;39.84
37792;BME280;29527;55.766;37.570;2023-03-13T10:06:40;99247.84;;;4.48;40.69
37792;BME280;29527;55.766;37.570;2023-03-13T10:11:53;99237.81;;;3.68;41.68
37792;BME280;29527;55.766;37.570;2023-03-13T10:14:50;99252.31;;;3.32;42.32
37792;BME280;29527;55.766;37.570;2023-03-13T10:17:39;99252.63;;;2.96;43.27
37792;BME280;29527;55.766;37.570;2023-03-13T10:20:25;99270.84;;;2.70;44.18
37792;BME280;29527;55.766;37.570;2023-03-13T10:23:04;99277.78;;;2.41;45.43
37792;BME280;29527;55.766;37.570;2023-03-13T10:25:32;99268.91;;;2.26;46.34
37792;BME280;29527;55.766;37.570;2023-03-13T10:27:59;99280.66;;;2.20;46.71
37792;BME280;29527;55.766;37.570;2023-03-13T10:30:28;99286.34;;;2.12;47.55
37792;BME280;29527;55.766;37.570;2023-03-13T10:33:18;99283.53;;;2.15;46.74
37792;BME280;29527;55.766;37.570;2023-03-13T10:35:44;99286.56;;;1.92;48.01
37792;BME280;29527;55.766;37.570;2023-03-13T10:40:36;99292.66;;;1.94;48.72
37792;BME280;29527;55.766;37.570;2023-03-13T10:43:17;99262.13;;;1.72;49.44
37792;BME280;29527;55.766;37.570;2023-03-13T10:45:43;99267.56;;;1.69;49.73
37792;BME280;29527;55.766;37.570;2023-03-13T10:48:23;99304.44;;;1.86;49.81
37792;BME280;29527;55.766;37.570;2023-03-13T10:50:52;99315.63;;;1.58;50.74
37792;BME280;29527;55.766;37.570;2023-03-13T10:56:17;99322.22;;;1.32;52.77
37792;BME280;29527;55.766;37.570;2023-03-13T10:58:46;99322.19;;;1.14;54.82
37792;BME280;29527;55.766;37.570;2023-03-13T11:01:40;99323.63;;;1.21;54.24
37792;BME280;29527;55.766;37.570;2023-03-13T11:07:34;99331.53;;;1.56;54.66
37792;BME280;29527;55.766;37.570;2023-03-13T11:10:22;99342.88;;;1.92;54.19
37792;BME280;29527;55.766;37.570;2023-03-13T11:12:51;99340.00;;;2.47;52.48
37792;BME280;29527;55.766;37.570;2023-03-13T11:18:31;99333.50;;;3.00;49.42
37792;BME280;29527;55.766;37.570;2023-03-13T11:21:02;99345.22;;;3.11;46.92
37792;BME280;29527;55.766;37.570;2023-03-13T11:26:15;99354.63;;;3.16;47.13
37792;BME280;29527;55.766;37.570;2023-03-13T11:31:40;99359.00;;;3.01;45.84
37792;BME280;29527;55.766;37.570;2023-03-13T11:34:37;99363.34;;;3.03;46.63
37792;BME280;29527;55.766;37.570;2023-03-13T11:37:09;99363.69;;;2.96;46.62
37792;BME280;29527;55.766;37.570;2023-03-13T11:39:58;99366.84;;;3.03;46.27
37792;BME280;29527;55.766;37.570;2023-03-13T11:52:56;99381.63;;;3.68;45.78
37792;BME280;29527;55.766;37.570;2023-03-13T11:55:40;99392.53;;;3.78;44.64
37792;BME280;29527;55.766;37.570;2023-03-13T12:00:59;99390.84;;;4.06;44.81
37792;BME280;29527;55.766;37.570;2023-03-13T12:03:37;99398.34;;;4.14;43.60
37792;BME280;29527;55.766;37.570;2023-03-13T12:06:06;99404.22;;;4.05;43.27
37792;BME280;29527;55.766;37.570;2023-03-13T12:08:44;99402.78;;;3.99;43.40
37792;BME280;29527;55.766;37.570;2023-03-13T12:11:25;99412.22;;;3.88;44.17
37792;BME280;29527;55.766;37.570;2023-03-13T12:14:31;99403.66;;;3.69;43.83
37792;BME280;29527;55.766;37.570;2023-03-13T12:19:21;99374.28;;;2.80;44.86
37792;BME280;29527;55.766;37.570;2023-03-13T12:21:51;99406.84;;;3.13;44.65
37792;BME280;29527;55.766;37.570;2023-03-13T12:25:03;99404.63;;;2.73;45.96
37792;BME280;29527;55.766;37.570;2023-03-13T12:27:38;99426.09;;;2.51;46.54
37792;BME280;29527;55.766;37.570;2023-03-13T12:38:45;99423.66;;;2.30;46.03
37792;BME280;29527;55.766;37.570;2023-03-13T12:43:48;99431.97;;;2.40;45.51
37792;BME280;29527;55.766;37.570;2023-03-13T12:51:41;99446.34;;;2.34;46.23
37792;BME280;29527;55.766;37.570;2023-03-13T12:58:08;99448.47;;;2.10;48.13
37792;BME280;29527;55.766;37.570;2023-03-13T13:00:36;99441.50;;;1.91;48.59
37792;BME280;29527;55.766;37.570;2023-03-13T13:05:37;99453.69;;;1.94;48.03
37792;BME280;29527;55.766;37.570;2023-03-13T13:08:03;99451.56;;;2.00;47.93
37792;BME280;29527;55.766;37.570;2023-03-13T13:10:29;99444.69;;;1.98;47.18
37792;BME280;29527;55.766;37.570;2023-03-13T13:16:03;99449.09;;;1.97;47.28
37792;BME280;29527;55.766;37.570;2023-03-13T13:18:31;99441.03;;;1.65;46.97
37792;BME280;29527;55.766;37.570;2023-03-13T13:23:28;99464.22;;;1.58;47.00
37792;BME280;29527;55.766;37.570;2023-03-13T13:28:48;99486.56;;;1.51;47.46
37792;BME280;29527;55.766;37.570;2023-03-13T13:36:59;99471.25;;;1.40;48.22
37792;BME280;29527;55.766;37.570;2023-03-13T13:43:17;99483.56;;;1.22;48.06
37792;BME280;29527;55.766;37.570;2023-03-13T13:45:35;99487.16;;;1.39;47.44
37792;BME280;29527;55.766;37.570;2023-03-13T13:50:38;99480.41;;;1.14;47.88
37792;BME280;29527;55.766;37.570;2023-03-13T13:53:29;99483.97;;;1.13;47.98
37792;BME280;29527;55.766;37.570;2023-03-13T13:55:55;99495.09;;;1.00;48.20
37792;BME280;29527;55.766;37.570;2023-03-13T13:58:29;99431.00;;;0.62;48.05
37792;BME280;29527;55.766;37.570;2023-03-13T14:01:00;99498.53;;;1.03;48.27
37792;BME280;29527;55.766;37.570;2023-03-13T14:03:31;99497.66;;;1.02;48.66
37792;BME280;29527;55.766;37.570;2023-03-13T14:06:02;99500.00;;;1.08;47.92
37792;BME280;29527;55.766;37.570;2023-03-13T14:08:39;99494.53;;;1.13;47.74
37792;BME280;29527;55.766;37.570;2023-03-13T14:11:22;99501.22;;;1.20;47.56
37792;BME280;29527;55.766;37.570;2023-03-13T14:16:33;99502.22;;;1.18;47.19
37792;BME280;29527;55.766;37.570;2023-03-13T14:18:58;99489.59;;;1.05;47.55
37792;BME280;29527;55.766;37.570;2023-03-13T14:21:24;99506.63;;;1.17;46.97
37792;BME280;29527;55.766;37.570;2023-03-13T14:23:51;99506.72;;;1.16;46.77
37792;BME280;29527;55.766;37.570;2023-03-13T14:28:49;99519.03;;;1.15;47.10
37792;BME280;29527;55.766;37.570;2023-03-13T14:33:48;99515.34;;;1.00;46.78
37792;BME280;29527;55.766;37.570;2023-03-13T14:36:14;99520.69;;;0.98;46.90
37792;BME280;29527;55.766;37.570;2023-03-13T14:38:50;99531.59;;;1.10;46.98